createdAt,value
2022-10-25T00:06:23.204Z,86.26
2022-10-25T00:15:57.450Z,86.58
2022-10-25T00:25:33.257Z,86.85
2022-10-25T00:35:07.495Z,87.20
2022-10-25T00:44:41.765Z,87.83
2022-10-25T00:54:15.350Z,88.77
2022-10-25T01:03:49.546Z,89.46
2022-10-25T01:13:23.394Z,89.89
2022-10-25T01:22:57.376Z,89.85
2022-10-25T01:32:29.567Z,90.40
2022-10-25T01:42:03.504Z,90.88
2022-10-25T01:51:37.835Z,90.78
2022-10-25T02:01:13.709Z,90.60
2022-10-25T02:10:46.330Z,91.09
2022-10-25T02:20:20.809Z,91.38
2022-10-25T02:29:55.586Z,91.35
2022-10-25T02:39:31.223Z,91.71
2022-10-25T02:49:05.404Z,92.22
2022-10-25T02:58:37.781Z,92.60
2022-10-25T03:08:12.158Z,92.84
2022-10-25T03:17:46.733Z,93.07
2022-10-25T03:27:22.709Z,93.39
2022-10-25T03:36:55.579Z,93.28
2022-10-25T03:46:33.478Z,93.35
2022-10-25T03:56:06.241Z,93.25
2022-10-25T04:05:40.521Z,93.60
2022-10-25T04:15:14.308Z,94.10
2022-10-25T04:24:46.741Z,94.39
2022-10-25T04:34:21.119Z,94.90
2022-10-25T04:43:57.036Z,95.46
2022-10-25T04:53:31.377Z,95.14
2022-10-25T05:03:04.237Z,94.94
2022-10-25T05:12:38.507Z,94.97
2022-10-25T05:22:12.669Z,95.41
2022-10-25T05:31:48.187Z,95.99
2022-10-25T05:41:22.678Z,96.12
2022-10-25T05:50:59.404Z,95.89
2022-10-25T06:00:31.874Z,95.39
2022-10-25T06:10:08.309Z,95.31
2022-10-25T06:19:39.957Z,93.85
2022-10-25T06:29:12.363Z,93.74
2022-10-25T06:38:46.755Z,94.99
2022-10-25T06:48:20.844Z,95.63
2022-10-25T06:57:57.028Z,96.20
2022-10-25T07:07:31.241Z,96.51
2022-10-25T07:17:04.417Z,96.18
2022-10-25T07:26:39.467Z,96.68
2022-10-25T07:36:14.305Z,95.30
2022-10-25T07:45:49.216Z,94.26
2022-10-25T07:55:23.798Z,93.51
2022-10-25T08:04:58.583Z,93.23
2022-10-25T08:14:36.375Z,92.63
2022-10-25T08:24:09.502Z,92.33
2022-10-25T08:33:43.772Z,92.51
2022-10-25T08:43:16.694Z,90.68
2022-10-25T08:44:20.824Z,90.62
2022-10-25T09:03:28.695Z,87.93
2022-10-25T09:13:05.865Z,86.38
2022-10-25T09:22:38.847Z,85.01
2022-10-25T09:32:15.236Z,83.42
2022-10-25T09:33:17.637Z,82.98
2022-10-25T09:34:20.092Z,83.17
2022-10-25T09:35:27.544Z,82.88
2022-10-25T09:36:31.304Z,82.32
2022-10-25T09:37:35.265Z,82.04
2022-10-25T09:38:37.590Z,81.99
2022-10-25T09:39:40.105Z,82.07
2022-10-25T09:40:47.485Z,81.07
2022-10-25T09:50:16.744Z,81.96
2022-10-25T09:51:20.713Z,81.72
2022-10-25T09:52:23.047Z,81.46
2022-10-25T09:53:27.183Z,81.19
2022-10-25T09:54:29.522Z,80.78
2022-10-25T09:55:34.692Z,80.69
2022-10-25T09:56:37.146Z,80.23
2022-10-25T09:57:39.627Z,80.32
2022-10-25T09:58:42.071Z,80.34
2022-10-25T09:59:46.170Z,80.01
2022-10-25T10:00:50.092Z,80.00
2022-10-25T10:01:52.510Z,79.52
2022-10-25T10:02:56.815Z,79.68
2022-10-25T10:03:59.938Z,79.82
2022-10-25T10:13:33.576Z,79.69
2022-10-25T10:14:37.576Z,79.30
2022-10-25T10:15:39.968Z,78.86
2022-10-25T10:16:44.034Z,78.89
2022-10-25T10:17:46.675Z,78.43
2022-10-25T10:18:48.863Z,78.37
2022-10-25T10:19:51.348Z,78.87
2022-10-25T10:20:53.820Z,78.32
2022-10-25T10:21:56.260Z,77.68
2022-10-25T10:22:58.780Z,77.20
2022-10-25T10:24:01.291Z,76.36
2022-10-25T10:25:03.773Z,76.44
2022-10-25T10:26:06.223Z,76.54
2022-10-25T10:27:08.712Z,75.90
2022-10-25T10:28:11.192Z,75.71
2022-10-25T10:29:16.627Z,75.99
2022-10-25T10:30:17.622Z,76.32
2022-10-25T10:31:20.143Z,75.89
2022-10-25T10:32:22.668Z,76.01
2022-10-25T10:33:25.056Z,75.63
2022-10-25T10:34:29.212Z,75.54
2022-10-25T10:35:33.173Z,75.59
2022-10-25T10:36:37.107Z,75.64
2022-10-25T10:37:41.163Z,75.56
2022-10-25T10:38:49.117Z,75.81
2022-10-25T10:39:51.225Z,75.13
2022-10-25T10:40:55.311Z,75.19
2022-10-25T10:41:57.649Z,75.93
2022-10-25T10:43:00.157Z,76.02
2022-10-25T10:44:02.702Z,75.81
2022-10-25T10:45:06.786Z,75.64
2022-10-25T10:46:10.777Z,75.23
2022-10-25T10:47:13.177Z,75.24
2022-10-25T10:48:15.627Z,75.17
2022-10-25T10:49:18.107Z,75.32
2022-10-25T10:50:22.190Z,75.59
2022-10-25T10:51:42.819Z,75.93
2022-10-25T11:00:57.068Z,75.69
2022-10-25T11:01:59.684Z,75.78
2022-10-25T11:03:02.214Z,75.94
2022-10-25T11:04:06.243Z,76.02
2022-10-25T11:05:08.630Z,76.48
2022-10-25T11:06:11.165Z,76.84
2022-10-25T11:07:15.313Z,75.87
2022-10-25T11:08:17.623Z,76.79
2022-10-25T11:09:20.143Z,76.72
2022-10-25T11:10:24.290Z,75.13
2022-10-25T11:11:28.225Z,75.05
2022-10-25T11:12:30.573Z,75.39
2022-10-25T11:13:33.107Z,75.00
2022-10-25T11:14:37.214Z,74.96
2022-10-25T11:15:39.555Z,74.31
2022-10-25T11:16:42.070Z,74.16
2022-10-25T11:17:46.487Z,74.07
2022-10-25T11:18:48.457Z,74.40
2022-10-25T11:19:53.608Z,73.94
2022-10-25T11:20:55.870Z,73.28
2022-10-25T11:21:58.393Z,73.34
2022-10-25T11:23:02.638Z,73.97
2022-10-25T11:24:03.313Z,74.09
2022-10-25T11:25:07.417Z,73.59
2022-10-25T11:26:10.752Z,73.19
2022-10-25T11:27:13.159Z,72.94
2022-10-25T11:28:17.218Z,73.83
2022-10-25T11:29:21.172Z,74.22
2022-10-25T11:30:23.549Z,74.13
2022-10-25T11:31:26.029Z,73.71
2022-10-25T11:32:28.532Z,74.13
2022-10-25T11:33:31.011Z,73.90
2022-10-25T11:34:33.461Z,73.72
2022-10-25T11:35:39.793Z,73.47
2022-10-25T11:36:42.000Z,73.41
2022-10-25T11:37:47.762Z,73.03
2022-10-25T11:38:49.685Z,72.92
2022-10-25T11:39:52.174Z,73.43
2022-10-25T11:40:54.741Z,74.00
2022-10-25T11:41:57.217Z,74.40
2022-10-25T11:43:01.352Z,74.34
2022-10-25T11:44:03.752Z,72.57
2022-10-25T11:45:07.739Z,72.23
2022-10-25T11:46:10.071Z,72.03
2022-10-25T11:47:14.288Z,71.49
2022-10-25T11:48:16.647Z,71.32
2022-10-25T11:49:19.071Z,70.81
2022-10-25T11:50:21.557Z,71.02
2022-10-25T11:51:24.023Z,70.87
2022-10-25T11:52:26.480Z,70.69
2022-10-25T11:53:30.643Z,71.35
2022-10-25T11:54:32.977Z,71.75
2022-10-25T11:55:35.365Z,71.26
2022-10-25T11:56:39.506Z,71.80
2022-10-25T11:57:41.819Z,72.14
2022-10-25T11:58:44.334Z,72.46
2022-10-25T11:59:46.819Z,72.59
2022-10-25T12:00:49.230Z,72.53
2022-10-25T12:01:51.757Z,73.05
2022-10-25T12:02:54.285Z,73.19
2022-10-25T12:03:56.732Z,72.99
2022-10-25T12:04:59.172Z,72.80
2022-10-25T12:06:01.701Z,72.77
2022-10-25T12:07:04.216Z,73.37
2022-10-25T12:08:08.235Z,73.56
2022-10-25T12:09:12.326Z,73.68
2022-10-25T12:10:14.737Z,73.40
2022-10-25T12:11:18.945Z,73.44
2022-10-25T12:12:22.789Z,72.38
2022-10-25T12:13:25.137Z,72.21
2022-10-25T12:14:27.626Z,71.52
2022-10-25T12:15:30.140Z,70.84
2022-10-25T12:16:32.590Z,71.35
2022-10-25T12:17:35.090Z,71.04
2022-10-25T12:18:37.666Z,71.78
2022-10-25T12:19:40.172Z,72.15
2022-10-25T12:20:42.680Z,72.26
2022-10-25T12:21:45.141Z,72.18
2022-10-25T12:22:49.657Z,71.63
2022-10-25T12:23:53.244Z,71.03
2022-10-25T12:24:58.103Z,71.80
2022-10-25T12:26:00.447Z,71.48
2022-10-25T12:27:04.523Z,71.04
2022-10-25T12:28:06.851Z,70.75
2022-10-25T12:29:09.370Z,70.66
2022-10-25T12:30:11.900Z,71.46
2022-10-25T12:31:14.317Z,72.11
2022-10-25T12:32:16.791Z,72.11
2022-10-25T12:33:19.336Z,72.09
2022-10-25T12:34:23.540Z,71.66
2022-10-25T12:35:25.870Z,71.62
2022-10-25T12:36:31.258Z,72.23
2022-10-25T12:37:33.480Z,70.42
2022-10-25T12:38:36.014Z,71.40
2022-10-25T12:39:38.439Z,70.72
2022-10-25T12:40:41.402Z,71.36
2022-10-25T12:41:45.014Z,70.61
2022-10-25T12:42:47.638Z,69.98
2022-10-25T12:43:49.925Z,69.25
2022-10-25T12:44:52.311Z,68.50
2022-10-25T12:45:56.044Z,68.42
2022-10-25T12:46:57.205Z,69.52
2022-10-25T12:47:59.670Z,69.48
2022-10-25T12:49:04.771Z,69.46
2022-10-25T12:50:08.708Z,69.24
2022-10-25T12:51:12.057Z,69.17
2022-10-25T13:00:43.279Z,68.69
2022-10-25T13:01:47.483Z,69.33
2022-10-25T13:02:51.382Z,69.03
2022-10-25T13:03:55.421Z,69.46
2022-10-25T13:04:57.751Z,68.67
2022-10-25T13:06:00.268Z,68.27
2022-10-25T13:07:04.309Z,68.77
2022-10-25T13:08:06.728Z,67.86
2022-10-25T13:09:10.742Z,67.62
2022-10-25T13:10:14.740Z,68.06
2022-10-25T13:11:17.122Z,68.45
2022-10-25T13:12:19.552Z,68.04
2022-10-25T13:13:23.671Z,68.64
2022-10-25T13:14:27.662Z,69.03
2022-10-25T13:15:30.034Z,68.55
2022-10-25T13:16:32.482Z,68.41
2022-10-25T13:17:36.566Z,69.30
2022-10-25T13:18:38.909Z,69.30
2022-10-25T13:19:53.904Z,68.60
2022-10-25T13:20:45.520Z,68.49
2022-10-25T13:21:48.745Z,68.43
2022-10-25T13:22:52.406Z,68.87
2022-10-25T13:23:54.294Z,69.18
2022-10-25T13:24:56.714Z,69.04
2022-10-25T13:26:00.813Z,68.85
2022-10-25T13:27:05.027Z,69.17
2022-10-25T13:28:07.331Z,69.00
2022-10-25T13:29:09.914Z,69.18
2022-10-25T13:30:12.350Z,69.60
2022-10-25T13:31:14.820Z,70.00
2022-10-25T13:32:18.908Z,70.33
2022-10-25T13:33:22.873Z,71.45
2022-10-25T13:34:25.197Z,70.13
2022-10-25T13:35:27.624Z,69.92
2022-10-25T13:36:31.727Z,69.71
2022-10-25T13:37:35.649Z,70.00
2022-10-25T13:38:39.527Z,69.70
2022-10-25T13:39:40.441Z,70.08
2022-10-25T13:40:44.531Z,69.74
2022-10-25T13:41:46.972Z,70.59
2022-10-25T13:42:49.681Z,69.96
2022-10-25T13:43:51.826Z,69.91
2022-10-25T13:44:54.315Z,70.63
2022-10-25T13:45:58.363Z,70.36
2022-10-25T13:47:00.715Z,70.41
2022-10-25T13:48:03.227Z,70.71
2022-10-25T13:49:07.243Z,71.11
2022-10-25T13:50:09.634Z,70.53
2022-10-25T13:51:12.073Z,70.23
2022-10-25T13:52:14.628Z,70.36
2022-10-25T13:53:17.015Z,71.62
2022-10-25T13:54:21.135Z,72.42
2022-10-25T13:55:23.421Z,72.05
2022-10-25T13:56:27.558Z,71.13
2022-10-25T13:57:31.401Z,71.79
2022-10-25T13:58:33.710Z,69.89
2022-10-25T13:59:37.896Z,69.67
2022-10-25T14:00:41.782Z,70.11
2022-10-25T14:10:13.985Z,71.71
2022-10-25T14:11:16.378Z,70.73
2022-10-25T14:12:20.573Z,70.61
2022-10-25T14:13:22.827Z,71.00
2022-10-25T14:14:26.854Z,70.74
2022-10-25T14:15:29.216Z,70.58
2022-10-25T14:16:31.757Z,69.87
2022-10-25T14:17:34.295Z,70.41
2022-10-25T14:18:36.757Z,70.27
2022-10-25T14:19:40.824Z,71.13
2022-10-25T14:20:45.777Z,70.77
2022-10-25T14:21:49.671Z,68.47
2022-10-25T14:22:53.661Z,68.88
2022-10-25T14:23:56.055Z,66.92
2022-10-25T14:25:00.178Z,66.01
2022-10-25T14:26:02.498Z,65.99
2022-10-25T14:27:04.981Z,65.80
2022-10-25T14:28:09.147Z,67.24
2022-10-25T14:29:13.028Z,66.76
2022-10-25T14:31:19.479Z,67.36
2022-10-25T14:32:24.727Z,66.72
2022-10-25T14:33:28.546Z,66.89
2022-10-25T14:34:32.511Z,67.65
2022-10-25T14:35:36.455Z,67.58
2022-10-25T14:36:40.460Z,67.10
2022-10-25T14:37:42.786Z,66.12
2022-10-25T14:38:45.235Z,66.22
2022-10-25T14:39:49.388Z,65.67
2022-10-25T14:40:53.354Z,65.93
2022-10-25T14:41:57.287Z,66.59
2022-10-25T14:42:59.718Z,65.49
2022-10-25T14:44:02.233Z,66.03
2022-10-25T14:45:04.650Z,65.92
2022-10-25T14:46:08.670Z,65.03
2022-10-25T14:47:12.632Z,65.00
2022-10-25T14:48:14.945Z,65.26
2022-10-25T14:49:17.369Z,65.54
2022-10-25T14:50:21.485Z,66.36
2022-10-25T14:51:25.406Z,66.94
2022-10-25T14:52:29.428Z,67.11
2022-10-25T14:53:31.822Z,67.75
2022-10-25T14:54:34.254Z,67.26
2022-10-25T14:55:36.708Z,67.79
2022-10-25T14:56:39.198Z,67.07
2022-10-25T14:57:43.353Z,67.33
2022-10-25T14:58:45.693Z,68.27
2022-10-25T14:59:48.266Z,66.91
2022-10-25T15:00:52.300Z,66.99
2022-10-25T15:01:56.241Z,66.74
2022-10-25T15:02:58.465Z,66.68
2022-10-25T15:04:02.626Z,66.52
2022-10-25T15:05:06.558Z,66.41
2022-10-25T15:06:08.906Z,66.17
2022-10-25T15:15:43.095Z,67.14
2022-10-25T15:16:45.507Z,67.43
2022-10-25T15:17:47.994Z,67.87
2022-10-25T15:18:50.524Z,69.10
2022-10-25T15:19:54.625Z,68.03
2022-10-25T15:20:59.809Z,67.50
2022-10-25T15:22:01.959Z,67.45
2022-10-25T15:23:06.109Z,67.66
2022-10-25T15:24:10.085Z,67.54
2022-10-25T15:25:12.412Z,68.29
2022-10-25T15:26:14.857Z,69.14
2022-10-25T15:27:17.362Z,68.00
2022-10-25T15:28:19.882Z,68.17
2022-10-25T15:29:22.330Z,68.78
2022-10-25T15:30:24.824Z,69.00
2022-10-25T15:31:27.284Z,69.55
2022-10-25T15:32:31.338Z,70.26
2022-10-25T15:33:33.684Z,71.05
2022-10-25T15:34:36.189Z,70.12
2022-10-25T15:35:38.680Z,70.42
2022-10-25T15:36:41.089Z,70.20
2022-10-25T15:37:43.554Z,70.74
2022-10-25T15:39:06.999Z,70.39
2022-10-25T15:39:50.197Z,70.77
2022-10-25T15:40:52.486Z,70.42
2022-10-25T15:41:54.982Z,69.87
2022-10-25T15:42:57.467Z,70.06
2022-10-25T15:44:01.516Z,70.57
2022-10-25T15:45:05.541Z,70.42
2022-10-25T15:46:07.835Z,70.93
2022-10-25T15:47:11.936Z,71.27
2022-10-25T15:48:14.249Z,70.86
2022-10-25T15:49:18.345Z,70.82
2022-10-25T15:50:20.809Z,71.90
2022-10-25T15:51:24.221Z,70.51
2022-10-25T15:52:25.720Z,70.53
2022-10-25T16:01:57.844Z,72.46
2022-10-25T16:11:31.987Z,74.41
2022-10-25T16:21:04.821Z,76.18
2022-10-25T16:22:07.218Z,76.43
2022-10-25T16:31:41.889Z,77.38
2022-10-25T16:41:13.929Z,79.38
2022-10-25T16:50:49.479Z,80.63
2022-10-25T17:00:22.055Z,82.32
2022-10-25T17:09:55.996Z,83.24
2022-10-25T17:19:30.077Z,85.36
2022-10-25T17:29:03.954Z,85.56
2022-10-25T17:38:38.100Z,86.48
2022-10-25T17:48:12.315Z,87.07
2022-10-25T17:57:46.695Z,87.34
2022-10-25T18:07:20.744Z,88.37
2022-10-25T18:16:56.445Z,89.85
2022-10-25T18:26:28.430Z,91.25
2022-10-25T18:36:02.718Z,93.08
2022-10-25T18:45:36.837Z,91.83
2022-10-25T18:55:12.585Z,93.59
2022-10-25T19:04:46.424Z,92.96
2022-10-25T19:14:18.648Z,94.47
2022-10-25T19:23:52.984Z,94.88
2022-10-25T19:33:28.215Z,95.23
2022-10-25T19:43:00.590Z,95.73
2022-10-25T19:52:34.634Z,96.13
2022-10-25T20:02:09.955Z,96.51
2022-10-25T20:03:14.786Z,96.58
2022-10-25T20:12:45.380Z,96.48
2022-10-25T20:22:19.324Z,97.64
2022-10-25T20:31:54.886Z,98.51
2022-10-25T20:41:28.956Z,98.96
2022-10-25T20:51:02.920Z,99.04
2022-10-25T21:00:35.097Z,99.23
2022-10-25T21:10:08.950Z,98.40
2022-10-25T21:19:42.482Z,99.42
2022-10-25T21:29:16.270Z,98.98
2022-10-25T21:38:50.129Z,99.12
2022-10-25T21:48:25.780Z,99.59
2022-10-25T21:57:59.941Z,100.00
2022-10-25T22:07:31.678Z,100.00
2022-10-25T22:17:07.383Z,99.93
2022-10-25T22:26:40.993Z,100.00
2022-10-25T22:36:14.533Z,100.00
2022-10-25T22:45:46.970Z,100.00
2022-10-25T22:55:21.159Z,100.00
2022-10-25T23:04:55.373Z,100.00
2022-10-25T23:14:31.255Z,100.00
2022-10-25T23:24:04.129Z,100.00
2022-10-25T23:33:40.102Z,100.00
2022-10-25T23:43:13.224Z,100.00
2022-10-25T23:52:49.384Z,100.00
